sensor_id;sensor_type;location;lat;lon;timestamp;pressure;altitude;pressure_sealevel;temperature;humidity
78223;BME280;67497;53.058;21.618;2023-03-11T00:00:59;97593.22;;;20.17;39.87
78223;BME280;67497;53.058;21.618;2023-03-11T00:03:01;97587.09;;;20.15;40.04
78223;BME280;67497;53.058;21.618;2023-03-11T00:05:02;97578.78;;;20.10;39.92
78223;BME280;67497;53.058;21.618;2023-03-11T00:07:07;97572.69;;;20.03;39.69
78223;BME280;67497;53.058;21.618;2023-03-11T00:09:07;97576.00;;;20.05;39.59
78223;BME280;67497;53.058;21.618;2023-03-11T00:11:08;97571.00;;;20.02;39.60
78223;BME280;67497;53.058;21.618;2023-03-11T00:13:10;97573.78;;;20.02;39.73
78223;BME280;67497;53.058;21.618;2023-03-11T00:15:11;97568.53;;;20.00;39.46
78223;BME280;67497;53.058;21.618;2023-03-11T00:17:12;97565.16;;;19.98;39.55
78223;BME280;67497;53.058;21.618;2023-03-11T00:19:13;97561.00;;;19.96;39.27
78223;BME280;67497;53.058;21.618;2023-03-11T00:21:17;97565.47;;;19.97;39.32
78223;BME280;67497;53.058;21.618;2023-03-11T00:23:19;97553.81;;;19.95;39.57
78223;BME280;67497;53.058;21.618;2023-03-11T00:25:21;97543.50;;;19.95;39.39
78223;BME280;67497;53.058;21.618;2023-03-11T00:27:23;97546.28;;;19.95;39.22
78223;BME280;67497;53.058;21.618;2023-03-11T00:29:23;97539.34;;;19.93;39.35
78223;BME280;67497;53.058;21.618;2023-03-11T00:31:24;97545.72;;;19.93;39.51
78223;BME280;67497;53.058;21.618;2023-03-11T00:33:25;97541.00;;;19.94;39.59
78223;BME280;67497;53.058;21.618;2023-03-11T00:35:28;97546.88;;;19.92;39.50
78223;BME280;67497;53.058;21.618;2023-03-11T00:37:29;97543.25;;;19.92;39.27
78223;BME280;67497;53.058;21.618;2023-03-11T00:39:30;97553.22;;;19.93;39.34
78223;BME280;67497;53.058;21.618;2023-03-11T00:41:31;97537.69;;;19.92;39.48
78223;BME280;67497;53.058;21.618;2023-03-11T00:43:32;97547.44;;;19.89;39.38
78223;BME280;67497;53.058;21.618;2023-03-11T00:45:33;97542.97;;;19.88;39.55
78223;BME280;67497;53.058;21.618;2023-03-11T00:47:34;97521.00;;;19.82;39.58
78223;BME280;67497;53.058;21.618;2023-03-11T00:49:34;97527.69;;;19.86;39.53
78223;BME280;67497;53.058;21.618;2023-03-11T00:51:35;97522.13;;;19.86;39.47
78223;BME280;67497;53.058;21.618;2023-03-11T00:53:36;97517.13;;;19.83;39.74
78223;BME280;67497;53.058;21.618;2023-03-11T00:55:37;97517.69;;;19.85;39.37
78223;BME280;67497;53.058;21.618;2023-03-11T00:57:37;97513.81;;;19.81;39.34
78223;BME280;67497;53.058;21.618;2023-03-11T00:59:39;97514.38;;;19.78;39.21
78223;BME280;67497;53.058;21.618;2023-03-11T01:01:39;97516.06;;;19.79;39.51
78223;BME280;67497;53.058;21.618;2023-03-11T01:03:41;97510.47;;;19.74;39.56
78223;BME280;67497;53.058;21.618;2023-03-11T01:05:41;97508.81;;;19.73;39.73
78223;BME280;67497;53.058;21.618;2023-03-11T01:07:42;97500.22;;;19.69;39.55
78223;BME280;67497;53.058;21.618;2023-03-11T01:09:42;97500.50;;;19.67;39.37
78223;BME280;67497;53.058;21.618;2023-03-11T01:11:43;97505.50;;;19.65;39.53
78223;BME280;67497;53.058;21.618;2023-03-11T01:13:44;97505.50;;;19.65;39.32
78223;BME280;67497;53.058;21.618;2023-03-11T01:15:44;97501.31;;;19.63;39.28
78223;BME280;67497;53.058;21.618;2023-03-11T01:17:45;97491.91;;;19.59;39.42
78223;BME280;67497;53.058;21.618;2023-03-11T01:19:45;97502.19;;;19.58;39.41
78223;BME280;67497;53.058;21.618;2023-03-11T01:21:46;97492.75;;;19.54;39.43
78223;BME280;67497;53.058;21.618;2023-03-11T01:23:46;97499.13;;;19.55;39.23
78223;BME280;67497;53.058;21.618;2023-03-11T01:25:47;97494.97;;;19.52;39.38
78223;BME280;67497;53.058;21.618;2023-03-11T01:27:48;97488.31;;;19.53;39.54
78223;BME280;67497;53.058;21.618;2023-03-11T01:29:48;97487.75;;;19.51;39.51
78223;BME280;67497;53.058;21.618;2023-03-11T01:31:49;97477.22;;;19.48;39.60
78223;BME280;67497;53.058;21.618;2023-03-11T01:33:49;97486.38;;;19.49;39.48
78223;BME280;67497;53.058;21.618;2023-03-11T01:35:50;97476.38;;;19.48;39.72
78223;BME280;67497;53.058;21.618;2023-03-11T01:37:50;97473.88;;;19.46;39.64
78223;BME280;67497;53.058;21.618;2023-03-11T01:39:52;97467.50;;;19.46;39.62
78223;BME280;67497;53.058;21.618;2023-03-11T01:41:52;97460.56;;;19.43;39.44
78223;BME280;67497;53.058;21.618;2023-03-11T01:43:55;97463.34;;;19.43;39.49
78223;BME280;67497;53.058;21.618;2023-03-11T01:47:56;97461.66;;;19.42;39.41
78223;BME280;67497;53.058;21.618;2023-03-11T01:49:57;97448.00;;;19.36;39.56
78223;BME280;67497;53.058;21.618;2023-03-11T01:52:02;97452.78;;;19.40;39.51
78223;BME280;67497;53.058;21.618;2023-03-11T01:54:10;97460.78;;;19.37;39.66
78223;BME280;67497;53.058;21.618;2023-03-11T01:56:12;97453.84;;;19.34;39.63
78223;BME280;67497;53.058;21.618;2023-03-11T01:58:17;97456.09;;;19.32;39.58
78223;BME280;67497;53.058;21.618;2023-03-11T02:00:19;97450.53;;;19.32;39.48
78223;BME280;67497;53.058;21.618;2023-03-11T02:02:28;97461.06;;;19.30;39.55
78223;BME280;67497;53.058;21.618;2023-03-11T02:04:33;97456.63;;;19.29;39.50
78223;BME280;67497;53.058;21.618;2023-03-11T02:06:34;97457.19;;;19.26;39.56
78223;BME280;67497;53.058;21.618;2023-03-11T02:08:35;97451.09;;;19.24;39.63
78223;BME280;67497;53.058;21.618;2023-03-11T02:10:38;97452.75;;;19.20;39.48
78223;BME280;67497;53.058;21.618;2023-03-11T02:12:40;97446.34;;;19.20;39.64
78223;BME280;67497;53.058;21.618;2023-03-11T02:14:48;97441.94;;;19.19;39.43
78223;BME280;67497;53.058;21.618;2023-03-11T02:16:49;97448.88;;;19.16;39.26
78223;BME280;67497;53.058;21.618;2023-03-11T02:18:50;97454.97;;;19.18;39.40
78223;BME280;67497;53.058;21.618;2023-03-11T02:21:03;97439.97;;;19.14;39.35
78223;BME280;67497;53.058;21.618;2023-03-11T02:23:06;97441.66;;;19.10;39.59
78223;BME280;67497;53.058;21.618;2023-03-11T02:25:30;97453.31;;;19.12;39.41
78223;BME280;67497;53.058;21.618;2023-03-11T02:27:37;97439.19;;;19.08;39.58
78223;BME280;67497;53.058;21.618;2023-03-11T02:29:40;97443.31;;;19.06;39.64
78223;BME280;67497;53.058;21.618;2023-03-11T02:31:42;97439.72;;;19.05;39.39
78223;BME280;67497;53.058;21.618;2023-03-11T02:33:44;97437.22;;;19.04;39.65
78223;BME280;67497;53.058;21.618;2023-03-11T02:35:45;97438.34;;;19.03;39.68
78223;BME280;67497;53.058;21.618;2023-03-11T02:37:48;97436.13;;;19.00;39.41
78223;BME280;67497;53.058;21.618;2023-03-11T02:39:51;97438.34;;;19.03;39.80
78223;BME280;67497;53.058;21.618;2023-03-11T02:41:52;97442.47;;;19.00;39.63
78223;BME280;67497;53.058;21.618;2023-03-11T02:43:53;97445.00;;;19.02;39.44
78223;BME280;67497;53.058;21.618;2023-03-11T02:45:54;97445.53;;;18.99;39.61
78223;BME280;67497;53.058;21.618;2023-03-11T02:47:57;97444.44;;;19.00;39.61
78223;BME280;67497;53.058;21.618;2023-03-11T02:49:58;97443.31;;;18.96;39.56
78223;BME280;67497;53.058;21.618;2023-03-11T02:51:59;97442.22;;;18.97;39.40
78223;BME280;67497;53.058;21.618;2023-03-11T02:54:03;97438.31;;;18.98;39.63
78223;BME280;67497;53.058;21.618;2023-03-11T02:56:04;97426.38;;;18.92;39.52
78223;BME280;67497;53.058;21.618;2023-03-11T02:58:04;97434.69;;;18.92;39.42
78223;BME280;67497;53.058;21.618;2023-03-11T03:00:05;97433.34;;;18.95;39.45
78223;BME280;67497;53.058;21.618;2023-03-11T03:02:13;97442.78;;;18.94;39.33
78223;BME280;67497;53.058;21.618;2023-03-11T03:04:13;97446.63;;;18.93;39.43
78223;BME280;67497;53.058;21.618;2023-03-11T03:06:14;97441.38;;;18.91;39.42
78223;BME280;67497;53.058;21.618;2023-03-11T03:08:14;97438.06;;;18.89;39.38
78223;BME280;67497;53.058;21.618;2023-03-11T03:10:16;97438.59;;;18.91;39.39
78223;BME280;67497;53.058;21.618;2023-03-11T03:12:17;97436.69;;;18.87;39.35
78223;BME280;67497;53.058;21.618;2023-03-11T03:14:18;97410.03;;;18.76;39.23
78223;BME280;67497;53.058;21.618;2023-03-11T03:16:18;97431.13;;;18.87;39.47
78223;BME280;67497;53.058;21.618;2023-03-11T03:18:19;97431.13;;;18.87;39.42
78223;BME280;67497;53.058;21.618;2023-03-11T03:20:20;97426.69;;;18.81;39.34
78223;BME280;67497;53.058;21.618;2023-03-11T03:22:21;97428.31;;;18.82;39.50
78223;BME280;67497;53.058;21.618;2023-03-11T03:24:26;97432.22;;;18.81;39.48
78223;BME280;67497;53.058;21.618;2023-03-11T03:26:27;97422.50;;;18.78;39.41
78223;BME280;67497;53.058;21.618;2023-03-11T03:28:27;97412.81;;;18.76;39.49
78223;BME280;67497;53.058;21.618;2023-03-11T03:30:28;97408.66;;;18.73;39.35
78223;BME280;67497;53.058;21.618;2023-03-11T03:32:28;97419.75;;;18.73;39.52
78223;BME280;67497;53.058;21.618;2023-03-11T03:34:29;97423.31;;;18.74;39.44
78223;BME280;67497;53.058;21.618;2023-03-11T03:36:29;97415.00;;;18.74;39.50
78223;BME280;67497;53.058;21.618;2023-03-11T03:38:30;97425.84;;;18.70;39.41
78223;BME280;67497;53.058;21.618;2023-03-11T03:40:30;97427.22;;;18.68;39.48
78223;BME280;67497;53.058;21.618;2023-03-11T03:42:31;97424.44;;;18.68;39.34
78223;BME280;67497;53.058;21.618;2023-03-11T03:44:31;97420.84;;;18.67;39.54
78223;BME280;67497;53.058;21.618;2023-03-11T03:46:33;97424.44;;;18.68;39.57
78223;BME280;67497;53.058;21.618;2023-03-11T03:48:33;97419.44;;;18.65;39.45
78223;BME280;67497;53.058;21.618;2023-03-11T03:50:34;97432.19;;;18.66;39.43
78223;BME280;67497;53.058;21.618;2023-03-11T03:52:35;97437.72;;;18.66;39.62
78223;BME280;67497;53.058;21.618;2023-03-11T03:54:36;97433.31;;;18.65;39.40
78223;BME280;67497;53.058;21.618;2023-03-11T03:56:37;97425.78;;;18.60;39.49
78223;BME280;67497;53.058;21.618;2023-03-11T03:58:38;97427.47;;;18.61;39.55
78223;BME280;67497;53.058;21.618;2023-03-11T04:00:38;97425.78;;;18.60;39.66
78223;BME280;67497;53.058;21.618;2023-03-11T04:02:39;97424.72;;;18.61;39.55
78223;BME280;67497;53.058;21.618;2023-03-11T04:04:40;97424.41;;;18.63;39.47
78223;BME280;67497;53.058;21.618;2023-03-11T04:06:41;97430.53;;;18.60;39.44
78223;BME280;67497;53.058;21.618;2023-03-11T04:08:42;97421.63;;;18.58;39.56
78223;BME280;67497;53.058;21.618;2023-03-11T04:10:43;97416.09;;;18.58;39.48
78223;BME280;67497;53.058;21.618;2023-03-11T04:12:44;97430.25;;;18.56;39.55
78223;BME280;67497;53.058;21.618;2023-03-11T04:14:44;97416.09;;;18.58;39.63
78223;BME280;67497;53.058;21.618;2023-03-11T04:16:45;97418.31;;;18.56;39.60
78223;BME280;67497;53.058;21.618;2023-03-11T04:18:46;97423.59;;;18.57;39.60
78223;BME280;67497;53.058;21.618;2023-03-11T04:20:46;97422.19;;;18.55;39.52
78223;BME280;67497;53.058;21.618;2023-03-11T04:22:47;97425.25;;;18.53;39.61
78223;BME280;67497;53.058;21.618;2023-03-11T04:24:47;97429.94;;;18.52;39.65
78223;BME280;67497;53.058;21.618;2023-03-11T04:26:48;97424.41;;;18.52;39.69
78223;BME280;67497;53.058;21.618;2023-03-11T04:28:48;97419.41;;;18.49;39.62
78223;BME280;67497;53.058;21.618;2023-03-11T04:30:49;97426.09;;;18.48;39.66
78223;BME280;67497;53.058;21.618;2023-03-11T04:32:49;97419.41;;;18.49;39.50
78223;BME280;67497;53.058;21.618;2023-03-11T04:34:50;97406.06;;;18.41;39.61
78223;BME280;67497;53.058;21.618;2023-03-11T04:36:53;97416.09;;;18.47;39.65
78223;BME280;67497;53.058;21.618;2023-03-11T04:38:56;97408.84;;;18.46;39.67
78223;BME280;67497;53.058;21.618;2023-03-11T04:41:04;97414.38;;;18.41;39.61
78223;BME280;67497;53.058;21.618;2023-03-11T04:43:05;97417.97;;;18.42;39.59
78223;BME280;67497;53.058;21.618;2023-03-11T04:45:06;97425.19;;;18.43;39.52
78223;BME280;67497;53.058;21.618;2023-03-11T04:47:07;97423.81;;;18.40;39.61
78223;BME280;67497;53.058;21.618;2023-03-11T04:49:07;97426.00;;;18.38;39.79
78223;BME280;67497;53.058;21.618;2023-03-11T04:51:09;97433.50;;;18.38;39.56
78223;BME280;67497;53.058;21.618;2023-03-11T04:53:10;97412.13;;;18.28;39.67
78223;BME280;67497;53.058;21.618;2023-03-11T04:55:10;97421.28;;;18.34;39.67
78223;BME280;67497;53.058;21.618;2023-03-11T04:57:12;97423.81;;;18.35;39.58
78223;BME280;67497;53.058;21.618;2023-03-11T04:59:13;97426.00;;;18.33;39.76
78223;BME280;67497;53.058;21.618;2023-03-11T05:01:13;97419.91;;;18.31;39.70
78223;BME280;67497;53.058;21.618;2023-03-11T05:03:14;97410.75;;;18.31;39.70
78223;BME280;67497;53.058;21.618;2023-03-11T05:05:14;97409.91;;;18.30;39.66
78223;BME280;67497;53.058;21.618;2023-03-11T05:07:15;97409.91;;;18.30;39.87
78223;BME280;67497;53.058;21.618;2023-03-11T05:09:16;97416.84;;;18.33;39.81
78223;BME280;67497;53.058;21.618;2023-03-11T05:11:17;97409.09;;;18.30;39.80
78223;BME280;67497;53.058;21.618;2023-03-11T05:13:18;97411.59;;;18.31;39.82
78223;BME280;67497;53.058;21.618;2023-03-11T05:15:19;97405.50;;;18.29;39.69
78223;BME280;67497;53.058;21.618;2023-03-11T05:17:20;97401.03;;;18.28;39.82
78223;BME280;67497;53.058;21.618;2023-03-11T05:19:20;97404.94;;;18.27;39.68
78223;BME280;67497;53.058;21.618;2023-03-11T05:21:30;97397.72;;;18.26;39.72
78223;BME280;67497;53.058;21.618;2023-03-11T05:23:30;97393.84;;;18.27;39.93
78223;BME280;67497;53.058;21.618;2023-03-11T05:25:31;97392.72;;;18.23;39.69
78223;BME280;67497;53.058;21.618;2023-03-11T05:27:31;97398.28;;;18.28;39.61
78223;BME280;67497;53.058;21.618;2023-03-11T05:29:32;97393.00;;;18.27;39.75
78223;BME280;67497;53.058;21.618;2023-03-11T05:31:32;97392.72;;;18.23;39.56
78223;BME280;67497;53.058;21.618;2023-03-11T05:33:33;97396.88;;;18.26;39.88
78223;BME280;67497;53.058;21.618;2023-03-11T05:35:35;97396.03;;;18.25;39.73
78223;BME280;67497;53.058;21.618;2023-03-11T05:37:35;97406.28;;;18.25;39.96
78223;BME280;67497;53.058;21.618;2023-03-11T05:39:38;97399.94;;;18.24;39.87
78223;BME280;67497;53.058;21.618;2023-03-11T05:41:39;97399.94;;;18.24;39.89
78223;BME280;67497;53.058;21.618;2023-03-11T05:43:39;97410.44;;;18.22;39.62
78223;BME280;67497;53.058;21.618;2023-03-11T05:45:40;97405.19;;;18.21;39.93
78223;BME280;67497;53.058;21.618;2023-03-11T05:47:40;97410.19;;;18.19;39.71
78223;BME280;67497;53.058;21.618;2023-03-11T05:49:41;97409.88;;;18.20;39.92
78223;BME280;67497;53.058;21.618;2023-03-11T05:51:42;97406.56;;;18.18;39.92
78223;BME280;67497;53.058;21.618;2023-03-11T05:53:44;97406.81;;;18.17;39.77
78223;BME280;67497;53.058;21.618;2023-03-11T05:55:55;97397.94;;;18.10;39.78
78223;BME280;67497;53.058;21.618;2023-03-11T05:57:56;97407.94;;;18.16;39.87
78223;BME280;67497;53.058;21.618;2023-03-11T05:59:57;97419.03;;;18.16;39.77
78223;BME280;67497;53.058;21.618;2023-03-11T06:01:57;97414.31;;;18.11;39.83
78223;BME280;67497;53.058;21.618;2023-03-11T06:03:58;97427.59;;;18.14;39.94
78223;BME280;67497;53.058;21.618;2023-03-11T06:05:59;97420.94;;;18.10;39.74
78223;BME280;67497;53.058;21.618;2023-03-11T06:08:00;97427.31;;;18.11;39.80
78223;BME280;67497;53.058;21.618;2023-03-11T06:10:01;97430.34;;;18.09;39.94
78223;BME280;67497;53.058;21.618;2023-03-11T06:12:03;97433.72;;;18.11;39.88
78223;BME280;67497;53.058;21.618;2023-03-11T06:14:04;97416.47;;;18.04;39.80
78223;BME280;67497;53.058;21.618;2023-03-11T06:16:05;97435.06;;;18.09;39.79
78223;BME280;67497;53.058;21.618;2023-03-11T06:18:05;97429.50;;;18.09;39.81
78223;BME280;67497;53.058;21.618;2023-03-11T06:20:06;97435.34;;;18.07;39.87
78223;BME280;67497;53.058;21.618;2023-03-11T06:22:08;97430.88;;;18.06;39.92
78223;BME280;67497;53.058;21.618;2023-03-11T06:24:08;97434.25;;;18.08;39.98
78223;BME280;67497;53.058;21.618;2023-03-11T06:26:10;97427.88;;;18.08;39.94
78223;BME280;67497;53.058;21.618;2023-03-11T06:28:12;97439.25;;;18.11;39.96
78223;BME280;67497;53.058;21.618;2023-03-11T06:30:13;97435.63;;;18.11;39.58
78223;BME280;67497;53.058;21.618;2023-03-11T06:32:13;97448.91;;;18.09;39.83
78223;BME280;67497;53.058;21.618;2023-03-11T06:34:14;97447.81;;;18.10;39.79
78223;BME280;67497;53.058;21.618;2023-03-11T06:36:16;97444.78;;;18.11;39.92
78223;BME280;67497;53.058;21.618;2023-03-11T06:38:17;97434.25;;;18.08;39.70
78223;BME280;67497;53.058;21.618;2023-03-11T06:40:17;97431.19;;;18.10;39.82
78223;BME280;67497;53.058;21.618;2023-03-11T06:42:18;97433.72;;;18.11;39.83
78223;BME280;67497;53.058;21.618;2023-03-11T06:44:19;97433.13;;;18.09;39.85
78223;BME280;67497;53.058;21.618;2023-03-11T06:46:21;97436.72;;;18.10;39.71
78223;BME280;67497;53.058;21.618;2023-03-11T06:48:22;97438.13;;;18.12;39.78
78223;BME280;67497;53.058;21.618;2023-03-11T06:50:23;97442.28;;;18.10;39.70
78223;BME280;67497;53.058;21.618;2023-03-11T06:52:24;97453.66;;;18.13;39.66
78223;BME280;67497;53.058;21.618;2023-03-11T06:54:24;97446.75;;;18.16;39.93
78223;BME280;67497;53.058;21.618;2023-03-11T06:56:25;97450.63;;;18.20;39.91
78223;BME280;67497;53.058;21.618;2023-03-11T06:58:25;97447.06;;;18.24;39.58
78223;BME280;67497;53.058;21.618;2023-03-11T07:00:26;97437.63;;;18.30;39.25
78223;BME280;67497;53.058;21.618;2023-03-11T07:02:27;97445.13;;;18.35;39.61
78223;BME280;67497;53.058;21.618;2023-03-11T07:04:27;97444.31;;;18.44;39.35
78223;BME280;67497;53.058;21.618;2023-03-11T07:06:28;97443.25;;;18.50;39.34
78223;BME280;67497;53.058;21.618;2023-03-11T07:08:29;97449.38;;;18.58;39.35
78223;BME280;67497;53.058;21.618;2023-03-11T07:10:30;97441.91;;;18.63;39.13
78223;BME280;67497;53.058;21.618;2023-03-11T07:12:30;97442.19;;;18.72;39.11
78223;BME280;67497;53.058;21.618;2023-03-11T07:14:31;97448.31;;;18.79;38.96
78223;BME280;67497;53.058;21.618;2023-03-11T07:16:31;97452.75;;;18.85;38.95
78223;BME280;67497;53.058;21.618;2023-03-11T07:18:33;97456.63;;;18.94;38.95
78223;BME280;67497;53.058;21.618;2023-03-11T07:20:34;97452.19;;;18.98;38.85
78223;BME280;67497;53.058;21.618;2023-03-11T07:22:35;97455.25;;;19.01;38.64
78223;BME280;67497;53.058;21.618;2023-03-11T07:24:35;97458.88;;;19.07;39.02
78223;BME280;67497;53.058;21.618;2023-03-11T07:26:36;97467.19;;;19.12;38.49
78223;BME280;67497;53.058;21.618;2023-03-11T07:28:37;97449.69;;;19.11;38.51
78223;BME280;67497;53.058;21.618;2023-03-11T07:30:38;97460.53;;;19.23;38.67
78223;BME280;67497;53.058;21.618;2023-03-11T07:32:40;97457.19;;;19.26;38.48
78223;BME280;67497;53.058;21.618;2023-03-11T07:34:41;97461.06;;;19.30;38.77
78223;BME280;67497;53.058;21.618;2023-03-11T07:36:41;97462.72;;;19.36;38.49
78223;BME280;67497;53.058;21.618;2023-03-11T07:38:42;97465.53;;;19.41;38.46
78223;BME280;67497;53.058;21.618;2023-03-11T07:40:43;97464.13;;;19.44;38.41
78223;BME280;67497;53.058;21.618;2023-03-11T07:42:44;97463.34;;;19.43;38.41
78223;BME280;67497;53.058;21.618;2023-03-11T07:44:44;97465.56;;;19.46;38.32
78223;BME280;67497;53.058;21.618;2023-03-11T07:46:45;97460.53;;;19.48;38.46
78223;BME280;67497;53.058;21.618;2023-03-11T07:48:45;97461.66;;;19.47;38.35
78223;BME280;67497;53.058;21.618;2023-03-11T07:50:46;97465.53;;;19.51;38.37
78223;BME280;67497;53.058;21.618;2023-03-11T07:52:47;97465.53;;;19.51;38.54
78223;BME280;67497;53.058;21.618;2023-03-11T07:54:47;97463.88;;;19.50;38.25
78223;BME280;67497;53.058;21.618;2023-03-11T07:56:48;97464.41;;;19.47;38.05
78223;BME280;67497;53.058;21.618;2023-03-11T07:58:49;97469.69;;;19.54;38.28
78223;BME280;67497;53.058;21.618;2023-03-11T08:00:50;97469.69;;;19.54;38.11
78223;BME280;67497;53.058;21.618;2023-03-11T08:02:51;97479.13;;;19.53;38.00
78223;BME280;67497;53.058;21.618;2023-03-11T08:04:54;97481.91;;;19.53;38.39
78223;BME280;67497;53.058;21.618;2023-03-11T08:06:55;97480.50;;;19.55;38.18
78223;BME280;67497;53.058;21.618;2023-03-11T08:08:57;97489.69;;;19.56;38.15
78223;BME280;67497;53.058;21.618;2023-03-11T08:11:02;97487.75;;;19.56;38.24
78223;BME280;67497;53.058;21.618;2023-03-11T08:13:02;97491.91;;;19.54;38.20
78223;BME280;67497;53.058;21.618;2023-03-11T08:15:03;97483.84;;;19.52;38.20
78223;BME280;67497;53.058;21.618;2023-03-11T08:17:04;97502.19;;;19.53;38.03
78223;BME280;67497;53.058;21.618;2023-03-11T08:19:05;97490.25;;;19.53;37.98
78223;BME280;67497;53.058;21.618;2023-03-11T08:21:15;97499.41;;;19.53;38.49
78223;BME280;67497;53.058;21.618;2023-03-11T08:23:15;97506.63;;;19.54;38.48
78223;BME280;67497;53.058;21.618;2023-03-11T08:25:16;97496.09;;;19.51;38.15
78223;BME280;67497;53.058;21.618;2023-03-11T08:27:16;97494.97;;;19.52;38.50
78223;BME280;67497;53.058;21.618;2023-03-11T08:29:17;97502.44;;;19.52;38.11
78223;BME280;67497;53.058;21.618;2023-03-11T08:31:23;97501.06;;;19.49;37.99
78223;BME280;67497;53.058;21.618;2023-03-11T08:33:24;97506.63;;;19.49;38.13
78223;BME280;67497;53.058;21.618;2023-03-11T08:35:25;97516.06;;;19.48;38.23
78223;BME280;67497;53.058;21.618;2023-03-11T08:37:26;97514.94;;;19.44;38.24
78223;BME280;67497;53.058;21.618;2023-03-11T08:39:26;97515.78;;;19.45;38.31
78223;BME280;67497;53.058;21.618;2023-03-11T08:41:27;97523.88;;;19.46;37.94
78223;BME280;67497;53.058;21.618;2023-03-11T08:43:27;97531.63;;;19.44;38.18
78223;BME280;67497;53.058;21.618;2023-03-11T08:45:28;97534.38;;;19.44;38.17
78223;BME280;67497;53.058;21.618;2023-03-11T08:47:33;97538.28;;;19.43;38.25
78223;BME280;67497;53.058;21.618;2023-03-11T08:49:34;97536.06;;;19.40;38.11
78223;BME280;67497;53.058;21.618;2023-03-11T08:51:36;97543.28;;;19.41;38.15
78223;BME280;67497;53.058;21.618;2023-03-11T08:53:36;97546.63;;;19.38;38.22
78223;BME280;67497;53.058;21.618;2023-03-11T08:55:37;97558.81;;;19.37;38.36
78223;BME280;67497;53.058;21.618;2023-03-11T08:57:37;97570.78;;;19.38;38.13
78223;BME280;67497;53.058;21.618;2023-03-11T08:59:38;97579.94;;;19.38;38.21
78223;BME280;67497;53.058;21.618;2023-03-11T09:01:39;97593.50;;;19.35;38.13
78223;BME280;67497;53.058;21.618;2023-03-11T09:03:41;97588.22;;;19.33;38.09
78223;BME280;67497;53.058;21.618;2023-03-11T09:05:41;97586.56;;;19.27;38.20
78223;BME280;67497;53.058;21.618;2023-03-11T09:07:42;97604.88;;;19.33;38.59
78223;BME280;67497;53.058;21.618;2023-03-11T09:09:42;97609.59;;;19.33;38.23
78223;BME280;67497;53.058;21.618;2023-03-11T09:11:43;97611.53;;;19.32;38.14
78223;BME280;67497;53.058;21.618;2023-03-11T09:13:43;97620.44;;;19.34;38.14
78223;BME280;67497;53.058;21.618;2023-03-11T09:15:44;97633.75;;;19.32;38.19
78223;BME280;67497;53.058;21.618;2023-03-11T09:17:45;97641.53;;;19.35;38.07
78223;BME280;67497;53.058;21.618;2023-03-11T09:19:45;97634.59;;;19.33;37.94
78223;BME280;67497;53.058;21.618;2023-03-11T09:21:46;97651.50;;;19.36;38.21
78223;BME280;67497;53.058;21.618;2023-03-11T09:23:46;97658.75;;;19.37;38.13
78223;BME280;67497;53.058;21.618;2023-03-11T09:25:47;97660.13;;;19.35;38.21
78223;BME280;67497;53.058;21.618;2023-03-11T09:27:48;97660.97;;;19.35;38.31
78223;BME280;67497;53.058;21.618;2023-03-11T09:29:48;97678.44;;;19.36;38.17
78223;BME280;67497;53.058;21.618;2023-03-11T09:31:49;97673.16;;;19.34;38.23
78223;BME280;67497;53.058;21.618;2023-03-11T09:33:50;97685.66;;;19.37;38.18
78223;BME280;67497;53.058;21.618;2023-03-11T09:35:52;97684.84;;;19.36;38.13
78223;BME280;67497;53.058;21.618;2023-03-11T09:37:52;97686.50;;;19.37;38.38
78223;BME280;67497;53.058;21.618;2023-03-11T09:39:52;97699.59;;;19.42;38.46
78223;BME280;67497;53.058;21.618;2023-03-11T09:42:14;97704.88;;;19.43;38.68
78223;BME280;67497;53.058;21.618;2023-03-11T09:53:41;97726.53;;;19.41;38.31
78223;BME280;67497;53.058;21.618;2023-03-11T09:55:47;97735.97;;;19.40;38.46
78223;BME280;67497;53.058;21.618;2023-03-11T09:57:49;97734.81;;;19.36;38.18
78223;BME280;67497;53.058;21.618;2023-03-11T09:59:51;97739.50;;;19.36;38.17
78223;BME280;67497;53.058;21.618;2023-03-11T10:01:51;97744.81;;;19.32;38.21
78223;BME280;67497;53.058;21.618;2023-03-11T10:03:55;97753.13;;;19.32;38.08
78223;BME280;67497;53.058;21.618;2023-03-11T10:06:21;97758.09;;;19.30;38.03
78223;BME280;67497;53.058;21.618;2023-03-11T10:08:40;97756.97;;;19.26;38.27
78223;BME280;67497;53.058;21.618;2023-03-11T10:10:46;97751.97;;;19.23;38.16
78223;BME280;67497;53.058;21.618;2023-03-11T10:12:55;97762.50;;;19.21;38.22
78223;BME280;67497;53.058;21.618;2023-03-11T10:15:15;97765.53;;;19.20;38.82
78223;BME280;67497;53.058;21.618;2023-03-11T10:19:54;97772.50;;;19.22;39.33
78223;BME280;67497;53.058;21.618;2023-03-11T10:26:53;97780.31;;;19.30;38.88
78223;BME280;67497;53.058;21.618;2023-03-11T10:29:16;97796.41;;;19.33;40.31
78223;BME280;67497;53.058;21.618;2023-03-11T10:31:21;97786.69;;;19.31;40.44
78223;BME280;67497;53.058;21.618;2023-03-11T10:33:44;97810.59;;;19.37;42.17
78223;BME280;67497;53.058;21.618;2023-03-11T10:35:51;97809.56;;;19.43;43.08
78223;BME280;67497;53.058;21.618;2023-03-11T10:37:56;97801.53;;;19.46;43.45
78223;BME280;67497;53.058;21.618;2023-03-11T10:40:09;97808.75;;;19.52;44.40
78223;BME280;67497;53.058;21.618;2023-03-11T10:42:24;97807.13;;;19.56;44.58
78223;BME280;67497;53.058;21.618;2023-03-11T10:44:41;97820.47;;;19.64;46.63
78223;BME280;67497;53.058;21.618;2023-03-11T10:46:41;97830.50;;;19.71;47.62
78223;BME280;67497;53.058;21.618;2023-03-11T10:48:42;97827.44;;;19.72;46.22
78223;BME280;67497;53.058;21.618;2023-03-11T10:53:15;97834.97;;;19.77;45.37
78223;BME280;67497;53.058;21.618;2023-03-11T10:55:16;97854.16;;;19.83;45.20
78223;BME280;67497;53.058;21.618;2023-03-11T10:57:25;97861.66;;;19.83;45.43
78223;BME280;67497;53.058;21.618;2023-03-11T11:01:31;97862.47;;;19.78;45.34